sensor_id;sensor_type;location;lat;lon;timestamp;P1;durP1;ratioP1;P2;durP2;ratioP2
38132;SDS011;23948;43.252;26.572;2022-07-04T00:00:43;9.50;;;3.20;;
38132;SDS011;23948;43.252;26.572;2022-07-04T00:03:08;6.10;;;2.83;;
38132;SDS011;23948;43.252;26.572;2022-07-04T00:05:33;9.77;;;3.35;;
38132;SDS011;23948;43.252;26.572;2022-07-04T00:07:59;6.20;;;3.17;;
38132;SDS011;23948;43.252;26.572;2022-07-04T00:10:24;7.70;;;2.92;;
38132;SDS011;23948;43.252;26.572;2022-07-04T00:12:50;9.13;;;3.42;;
38132;SDS011;23948;43.252;26.572;2022-07-04T00:15:15;5.45;;;3.03;;
38132;SDS011;23948;43.252;26.572;2022-07-04T00:17:41;7.50;;;3.25;;
38132;SDS011;23948;43.252;26.572;2022-07-04T00:20:06;6.10;;;2.97;;
38132;SDS011;23948;43.252;26.572;2022-07-04T00:22:32;8.52;;;3.00;;
38132;SDS011;23948;43.252;26.572;2022-07-04T00:24:57;5.85;;;3.78;;
38132;SDS011;23948;43.252;26.572;2022-07-04T00:27:23;6.93;;;3.17;;
38132;SDS011;23948;43.252;26.572;2022-07-04T00:29:48;6.28;;;3.90;;
38132;SDS011;23948;43.252;26.572;2022-07-04T00:32:13;6.35;;;3.30;;
38132;SDS011;23948;43.252;26.572;2022-07-04T00:34:39;9.52;;;3.20;;
38132;SDS011;23948;43.252;26.572;2022-07-04T00:37:04;7.70;;;3.50;;
38132;SDS011;23948;43.252;26.572;2022-07-04T00:39:29;8.48;;;4.00;;
38132;SDS011;23948;43.252;26.572;2022-07-04T00:41:55;6.25;;;3.50;;
38132;SDS011;23948;43.252;26.572;2022-07-04T00:44:20;10.68;;;3.22;;
38132;SDS011;23948;43.252;26.572;2022-07-04T00:46:46;6.32;;;3.33;;
38132;SDS011;23948;43.252;26.572;2022-07-04T00:49:11;7.55;;;3.40;;
38132;SDS011;23948;43.252;26.572;2022-07-04T00:51:38;8.38;;;3.65;;
38132;SDS011;23948;43.252;26.572;2022-07-04T00:54:04;5.35;;;3.05;;
38132;SDS011;23948;43.252;26.572;2022-07-04T00:56:29;8.13;;;3.25;;
38132;SDS011;23948;43.252;26.572;2022-07-04T00:58:55;9.52;;;3.42;;
38132;SDS011;23948;43.252;26.572;2022-07-04T01:01:20;9.05;;;3.42;;
38132;SDS011;23948;43.252;26.572;2022-07-04T01:03:45;8.55;;;3.40;;
38132;SDS011;23948;43.252;26.572;2022-07-04T01:06:11;7.10;;;3.05;;
38132;SDS011;23948;43.252;26.572;2022-07-04T01:08:40;9.15;;;3.63;;
38132;SDS011;23948;43.252;26.572;2022-07-04T01:11:05;6.72;;;3.25;;
38132;SDS011;23948;43.252;26.572;2022-07-04T01:13:31;8.48;;;3.30;;
38132;SDS011;23948;43.252;26.572;2022-07-04T01:15:56;5.38;;;2.90;;
38132;SDS011;23948;43.252;26.572;2022-07-04T01:18:22;10.40;;;3.30;;
38132;SDS011;23948;43.252;26.572;2022-07-04T01:20:47;7.75;;;2.90;;
38132;SDS011;23948;43.252;26.572;2022-07-04T01:23:12;7.45;;;3.10;;
38132;SDS011;23948;43.252;26.572;2022-07-04T01:25:37;4.40;;;2.97;;
38132;SDS011;23948;43.252;26.572;2022-07-04T01:28:03;7.30;;;3.53;;
38132;SDS011;23948;43.252;26.572;2022-07-04T01:30:29;5.20;;;3.00;;
38132;SDS011;23948;43.252;26.572;2022-07-04T01:32:55;9.50;;;3.50;;
38132;SDS011;23948;43.252;26.572;2022-07-04T01:35:20;7.07;;;3.20;;
38132;SDS011;23948;43.252;26.572;2022-07-04T01:37:45;7.63;;;3.10;;
38132;SDS011;23948;43.252;26.572;2022-07-04T01:40:11;7.20;;;3.22;;
38132;SDS011;23948;43.252;26.572;2022-07-04T01:42:37;7.47;;;3.22;;
38132;SDS011;23948;43.252;26.572;2022-07-04T01:45:03;6.90;;;3.15;;
38132;SDS011;23948;43.252;26.572;2022-07-04T01:47:28;8.15;;;3.60;;
38132;SDS011;23948;43.252;26.572;2022-07-04T01:49:53;5.57;;;3.30;;
38132;SDS011;23948;43.252;26.572;2022-07-04T01:52:19;8.68;;;3.05;;
38132;SDS011;23948;43.252;26.572;2022-07-04T01:54:44;6.93;;;3.53;;
38132;SDS011;23948;43.252;26.572;2022-07-04T01:57:09;8.95;;;3.45;;
38132;SDS011;23948;43.252;26.572;2022-07-04T01:59:34;5.00;;;3.10;;
38132;SDS011;23948;43.252;26.572;2022-07-04T02:02:18;7.95;;;3.30;;
38132;SDS011;23948;43.252;26.572;2022-07-04T02:04:44;7.05;;;3.28;;
38132;SDS011;23948;43.252;26.572;2022-07-04T02:07:09;10.68;;;3.25;;
38132;SDS011;23948;43.252;26.572;2022-07-04T02:09:34;6.65;;;3.47;;
38132;SDS011;23948;43.252;26.572;2022-07-04T02:11:59;7.53;;;3.63;;
38132;SDS011;23948;43.252;26.572;2022-07-04T02:14:43;11.25;;;3.75;;
38132;SDS011;23948;43.252;26.572;2022-07-04T02:17:09;6.70;;;3.83;;
38132;SDS011;23948;43.252;26.572;2022-07-04T02:19:35;9.50;;;3.90;;
38132;SDS011;23948;43.252;26.572;2022-07-04T02:22:00;5.35;;;3.08;;
38132;SDS011;23948;43.252;26.572;2022-07-04T02:24:25;5.43;;;3.28;;
38132;SDS011;23948;43.252;26.572;2022-07-04T02:26:51;7.68;;;3.90;;
38132;SDS011;23948;43.252;26.572;2022-07-04T02:29:16;5.85;;;3.47;;
38132;SDS011;23948;43.252;26.572;2022-07-04T02:31:41;8.15;;;3.47;;
38132;SDS011;23948;43.252;26.572;2022-07-04T02:34:07;6.00;;;3.20;;
38132;SDS011;23948;43.252;26.572;2022-07-04T02:36:32;6.88;;;3.10;;
38132;SDS011;23948;43.252;26.572;2022-07-04T02:38:57;6.30;;;3.45;;
38132;SDS011;23948;43.252;26.572;2022-07-04T02:41:23;6.70;;;3.20;;
38132;SDS011;23948;43.252;26.572;2022-07-04T02:43:48;8.50;;;3.28;;
38132;SDS011;23948;43.252;26.572;2022-07-04T02:46:13;9.10;;;3.60;;
38132;SDS011;23948;43.252;26.572;2022-07-04T02:48:38;9.00;;;3.70;;
38132;SDS011;23948;43.252;26.572;2022-07-04T02:51:04;8.23;;;3.50;;
38132;SDS011;23948;43.252;26.572;2022-07-04T02:53:29;11.07;;;3.83;;
38132;SDS011;23948;43.252;26.572;2022-07-04T02:55:54;7.75;;;3.78;;
38132;SDS011;23948;43.252;26.572;2022-07-04T02:58:19;8.80;;;3.78;;
38132;SDS011;23948;43.252;26.572;2022-07-04T03:00:45;9.15;;;3.25;;
38132;SDS011;23948;43.252;26.572;2022-07-04T03:03:10;7.32;;;3.40;;
38132;SDS011;23948;43.252;26.572;2022-07-04T03:05:35;8.70;;;3.80;;
38132;SDS011;23948;43.252;26.572;2022-07-04T03:08:01;9.35;;;3.53;;
38132;SDS011;23948;43.252;26.572;2022-07-04T03:10:26;7.10;;;3.55;;
38132;SDS011;23948;43.252;26.572;2022-07-04T03:12:51;11.95;;;4.13;;
38132;SDS011;23948;43.252;26.572;2022-07-04T03:15:16;8.73;;;3.65;;
38132;SDS011;23948;43.252;26.572;2022-07-04T03:17:42;9.40;;;3.58;;
38132;SDS011;23948;43.252;26.572;2022-07-04T03:20:08;9.73;;;3.33;;
38132;SDS011;23948;43.252;26.572;2022-07-04T03:22:33;9.73;;;4.22;;
38132;SDS011;23948;43.252;26.572;2022-07-04T03:24:58;8.10;;;3.67;;
38132;SDS011;23948;43.252;26.572;2022-07-04T03:27:24;12.75;;;4.03;;
38132;SDS011;23948;43.252;26.572;2022-07-04T03:29:49;9.00;;;3.70;;
38132;SDS011;23948;43.252;26.572;2022-07-04T03:32:14;10.48;;;4.30;;
38132;SDS011;23948;43.252;26.572;2022-07-04T03:34:40;10.40;;;4.03;;
38132;SDS011;23948;43.252;26.572;2022-07-04T03:37:05;10.02;;;4.10;;
38132;SDS011;23948;43.252;26.572;2022-07-04T03:39:30;10.35;;;4.35;;
38132;SDS011;23948;43.252;26.572;2022-07-04T03:41:55;13.50;;;4.53;;
38132;SDS011;23948;43.252;26.572;2022-07-04T03:44:21;8.07;;;3.97;;
38132;SDS011;23948;43.252;26.572;2022-07-04T03:46:46;13.45;;;3.80;;
38132;SDS011;23948;43.252;26.572;2022-07-04T03:49:11;10.10;;;4.22;;
38132;SDS011;23948;43.252;26.572;2022-07-04T03:51:36;9.75;;;4.15;;
38132;SDS011;23948;43.252;26.572;2022-07-04T03:54:02;13.50;;;4.63;;
38132;SDS011;23948;43.252;26.572;2022-07-04T03:56:27;8.40;;;4.70;;
38132;SDS011;23948;43.252;26.572;2022-07-04T03:58:52;11.80;;;5.25;;
38132;SDS011;23948;43.252;26.572;2022-07-04T04:01:18;18.73;;;5.63;;
38132;SDS011;23948;43.252;26.572;2022-07-04T04:03:44;11.30;;;5.35;;
38132;SDS011;23948;43.252;26.572;2022-07-04T04:06:28;15.35;;;5.65;;
38132;SDS011;23948;43.252;26.572;2022-07-04T04:08:53;12.30;;;5.35;;
38132;SDS011;23948;43.252;26.572;2022-07-04T04:11:18;11.50;;;5.07;;
38132;SDS011;23948;43.252;26.572;2022-07-04T04:13:44;14.63;;;5.32;;
38132;SDS011;23948;43.252;26.572;2022-07-04T04:16:09;22.25;;;5.63;;
38132;SDS011;23948;43.252;26.572;2022-07-04T04:18:35;14.10;;;5.00;;
38132;SDS011;23948;43.252;26.572;2022-07-04T04:21:00;10.82;;;4.43;;
38132;SDS011;23948;43.252;26.572;2022-07-04T04:23:25;11.13;;;5.00;;
38132;SDS011;23948;43.252;26.572;2022-07-04T04:25:51;9.98;;;4.68;;
38132;SDS011;23948;43.252;26.572;2022-07-04T04:28:16;8.50;;;4.45;;
38132;SDS011;23948;43.252;26.572;2022-07-04T04:30:41;8.55;;;5.40;;
38132;SDS011;23948;43.252;26.572;2022-07-04T04:33:06;11.00;;;4.85;;
38132;SDS011;23948;43.252;26.572;2022-07-04T04:35:32;14.15;;;4.93;;
38132;SDS011;23948;43.252;26.572;2022-07-04T04:37:57;9.40;;;4.93;;
38132;SDS011;23948;43.252;26.572;2022-07-04T04:40:23;9.38;;;4.82;;
38132;SDS011;23948;43.252;26.572;2022-07-04T04:42:48;11.55;;;4.60;;
38132;SDS011;23948;43.252;26.572;2022-07-04T04:45:13;13.48;;;5.50;;
38132;SDS011;23948;43.252;26.572;2022-07-04T04:47:39;16.42;;;5.45;;
38132;SDS011;23948;43.252;26.572;2022-07-04T04:50:05;9.13;;;5.07;;
38132;SDS011;23948;43.252;26.572;2022-07-04T04:52:31;8.48;;;4.90;;
38132;SDS011;23948;43.252;26.572;2022-07-04T04:54:56;9.57;;;4.57;;
38132;SDS011;23948;43.252;26.572;2022-07-04T04:57:21;11.45;;;4.93;;
38132;SDS011;23948;43.252;26.572;2022-07-04T04:59:47;16.15;;;5.38;;
38132;SDS011;23948;43.252;26.572;2022-07-04T05:02:12;10.77;;;5.32;;
38132;SDS011;23948;43.252;26.572;2022-07-04T05:04:37;11.68;;;4.65;;
38132;SDS011;23948;43.252;26.572;2022-07-04T05:07:03;13.68;;;4.82;;
38132;SDS011;23948;43.252;26.572;2022-07-04T05:09:28;13.68;;;5.50;;
38132;SDS011;23948;43.252;26.572;2022-07-04T05:11:53;17.67;;;5.53;;
38132;SDS011;23948;43.252;26.572;2022-07-04T05:14:18;11.52;;;4.90;;
38132;SDS011;23948;43.252;26.572;2022-07-04T05:16:44;10.80;;;4.85;;
38132;SDS011;23948;43.252;26.572;2022-07-04T05:19:09;15.95;;;5.85;;
38132;SDS011;23948;43.252;26.572;2022-07-04T05:21:34;10.00;;;5.40;;
38132;SDS011;23948;43.252;26.572;2022-07-04T05:24:00;15.15;;;5.53;;
38132;SDS011;23948;43.252;26.572;2022-07-04T05:26:25;12.07;;;5.90;;
38132;SDS011;23948;43.252;26.572;2022-07-04T05:28:50;12.63;;;5.50;;
38132;SDS011;23948;43.252;26.572;2022-07-04T05:31:16;11.00;;;5.88;;
38132;SDS011;23948;43.252;26.572;2022-07-04T05:33:41;12.15;;;6.00;;
38132;SDS011;23948;43.252;26.572;2022-07-04T05:36:07;10.35;;;5.63;;
38132;SDS011;23948;43.252;26.572;2022-07-04T05:38:32;12.38;;;5.00;;
38132;SDS011;23948;43.252;26.572;2022-07-04T05:40:57;10.38;;;4.90;;
38132;SDS011;23948;43.252;26.572;2022-07-04T05:43:23;10.30;;;4.25;;
38132;SDS011;23948;43.252;26.572;2022-07-04T05:45:50;13.20;;;4.53;;
38132;SDS011;23948;43.252;26.572;2022-07-04T05:48:15;7.70;;;3.65;;
38132;SDS011;23948;43.252;26.572;2022-07-04T05:50:41;7.50;;;4.00;;
38132;SDS011;23948;43.252;26.572;2022-07-04T05:53:06;10.27;;;4.10;;
38132;SDS011;23948;43.252;26.572;2022-07-04T05:55:31;13.52;;;4.22;;
38132;SDS011;23948;43.252;26.572;2022-07-04T05:57:57;9.30;;;4.03;;
38132;SDS011;23948;43.252;26.572;2022-07-04T06:00:22;7.63;;;4.00;;
38132;SDS011;23948;43.252;26.572;2022-07-04T06:02:47;11.68;;;4.53;;
38132;SDS011;23948;43.252;26.572;2022-07-04T06:05:13;10.00;;;4.78;;
38132;SDS011;23948;43.252;26.572;2022-07-04T06:07:38;13.98;;;5.05;;
38132;SDS011;23948;43.252;26.572;2022-07-04T06:10:04;16.17;;;4.78;;
38132;SDS011;23948;43.252;26.572;2022-07-04T06:12:30;12.02;;;3.55;;
38132;SDS011;23948;43.252;26.572;2022-07-04T06:14:55;11.95;;;4.32;;
38132;SDS011;23948;43.252;26.572;2022-07-04T06:17:20;11.57;;;3.72;;
38132;SDS011;23948;43.252;26.572;2022-07-04T06:19:46;11.52;;;3.63;;
38132;SDS011;23948;43.252;26.572;2022-07-04T06:22:11;6.85;;;3.70;;
38132;SDS011;23948;43.252;26.572;2022-07-04T06:24:37;10.52;;;3.72;;
38132;SDS011;23948;43.252;26.572;2022-07-04T06:27:03;5.60;;;3.40;;
38132;SDS011;23948;43.252;26.572;2022-07-04T06:29:28;13.93;;;3.53;;
38132;SDS011;23948;43.252;26.572;2022-07-04T06:31:54;8.70;;;3.50;;
38132;SDS011;23948;43.252;26.572;2022-07-04T06:34:19;6.65;;;3.88;;
38132;SDS011;23948;43.252;26.572;2022-07-04T06:37:03;7.95;;;3.38;;
38132;SDS011;23948;43.252;26.572;2022-07-04T06:39:28;10.32;;;3.45;;
38132;SDS011;23948;43.252;26.572;2022-07-04T06:41:54;7.10;;;3.58;;
38132;SDS011;23948;43.252;26.572;2022-07-04T06:44:19;13.50;;;4.00;;
38132;SDS011;23948;43.252;26.572;2022-07-04T06:46:44;10.90;;;3.70;;
38132;SDS011;23948;43.252;26.572;2022-07-04T06:49:11;13.35;;;4.32;;
38132;SDS011;23948;43.252;26.572;2022-07-04T06:51:36;15.60;;;4.15;;
38132;SDS011;23948;43.252;26.572;2022-07-04T06:54:01;10.07;;;3.20;;
38132;SDS011;23948;43.252;26.572;2022-07-04T06:56:27;10.20;;;3.33;;
38132;SDS011;23948;43.252;26.572;2022-07-04T06:58:53;5.85;;;2.92;;
38132;SDS011;23948;43.252;26.572;2022-07-04T07:01:19;11.05;;;3.28;;
38132;SDS011;23948;43.252;26.572;2022-07-04T07:03:44;8.10;;;3.20;;
38132;SDS011;23948;43.252;26.572;2022-07-04T07:06:09;10.52;;;2.80;;
38132;SDS011;23948;43.252;26.572;2022-07-04T07:08:35;5.75;;;2.50;;
38132;SDS011;23948;43.252;26.572;2022-07-04T07:11:00;5.53;;;2.63;;
38132;SDS011;23948;43.252;26.572;2022-07-04T07:13:38;4.38;;;2.42;;
38132;SDS011;23948;43.252;26.572;2022-07-04T07:16:04;5.90;;;2.60;;
38132;SDS011;23948;43.252;26.572;2022-07-04T07:18:29;5.00;;;2.10;;
38132;SDS011;23948;43.252;26.572;2022-07-04T07:20:54;5.20;;;2.30;;
38132;SDS011;23948;43.252;26.572;2022-07-04T07:23:20;6.10;;;2.40;;
38132;SDS011;23948;43.252;26.572;2022-07-04T07:25:45;7.28;;;2.50;;
38132;SDS011;23948;43.252;26.572;2022-07-04T07:28:10;7.22;;;2.47;;
38132;SDS011;23948;43.252;26.572;2022-07-04T07:30:35;10.00;;;2.80;;
38132;SDS011;23948;43.252;26.572;2022-07-04T07:33:01;4.10;;;2.42;;
38132;SDS011;23948;43.252;26.572;2022-07-04T07:35:26;6.18;;;2.05;;
38132;SDS011;23948;43.252;26.572;2022-07-04T07:37:52;4.43;;;2.38;;
38132;SDS011;23948;43.252;26.572;2022-07-04T07:40:17;5.55;;;2.50;;
38132;SDS011;23948;43.252;26.572;2022-07-04T07:42:42;4.68;;;2.00;;
38132;SDS011;23948;43.252;26.572;2022-07-04T07:45:08;8.05;;;2.30;;
38132;SDS011;23948;43.252;26.572;2022-07-04T07:47:35;5.90;;;1.85;;
38132;SDS011;23948;43.252;26.572;2022-07-04T07:50:01;8.27;;;2.33;;
38132;SDS011;23948;43.252;26.572;2022-07-04T07:52:28;4.90;;;2.10;;
38132;SDS011;23948;43.252;26.572;2022-07-04T07:54:53;4.05;;;2.10;;
38132;SDS011;23948;43.252;26.572;2022-07-04T07:57:19;6.05;;;2.10;;
38132;SDS011;23948;43.252;26.572;2022-07-04T07:59:44;5.82;;;2.00;;
38132;SDS011;23948;43.252;26.572;2022-07-04T08:02:10;5.45;;;2.00;;
38132;SDS011;23948;43.252;26.572;2022-07-04T08:04:35;3.22;;;1.90;;
38132;SDS011;23948;43.252;26.572;2022-07-04T08:07:06;5.13;;;1.67;;
38132;SDS011;23948;43.252;26.572;2022-07-04T08:09:31;4.38;;;1.77;;
38132;SDS011;23948;43.252;26.572;2022-07-04T08:11:57;5.75;;;1.80;;
38132;SDS011;23948;43.252;26.572;2022-07-04T08:14:22;4.93;;;2.00;;
38132;SDS011;23948;43.252;26.572;2022-07-04T08:16:48;4.38;;;1.75;;
38132;SDS011;23948;43.252;26.572;2022-07-04T08:19:14;6.38;;;2.10;;
38132;SDS011;23948;43.252;26.572;2022-07-04T08:21:40;4.93;;;1.75;;
38132;SDS011;23948;43.252;26.572;2022-07-04T08:24:05;3.50;;;1.70;;
38132;SDS011;23948;43.252;26.572;2022-07-04T08:26:30;4.40;;;1.80;;
38132;SDS011;23948;43.252;26.572;2022-07-04T08:28:56;4.95;;;1.67;;
38132;SDS011;23948;43.252;26.572;2022-07-04T08:31:23;3.15;;;1.75;;
38132;SDS011;23948;43.252;26.572;2022-07-04T08:33:48;3.95;;;1.63;;
38132;SDS011;23948;43.252;26.572;2022-07-04T08:36:15;3.63;;;1.52;;
38132;SDS011;23948;43.252;26.572;2022-07-04T08:38:40;5.50;;;2.08;;
38132;SDS011;23948;43.252;26.572;2022-07-04T08:41:06;7.15;;;1.60;;
38132;SDS011;23948;43.252;26.572;2022-07-04T08:43:31;5.45;;;1.80;;
38132;SDS011;23948;43.252;26.572;2022-07-04T08:46:04;5.13;;;1.63;;
38132;SDS011;23948;43.252;26.572;2022-07-04T08:48:30;3.92;;;1.60;;
38132;SDS011;23948;43.252;26.572;2022-07-04T08:50:57;6.22;;;1.70;;
38132;SDS011;23948;43.252;26.572;2022-07-04T08:53:26;3.38;;;1.60;;
38132;SDS011;23948;43.252;26.572;2022-07-04T08:55:52;3.17;;;1.50;;
38132;SDS011;23948;43.252;26.572;2022-07-04T08:58:37;2.08;;;1.30;;
38132;SDS011;23948;43.252;26.572;2022-07-04T09:01:04;4.50;;;1.60;;
38132;SDS011;23948;43.252;26.572;2022-07-04T09:03:29;2.78;;;1.40;;
38132;SDS011;23948;43.252;26.572;2022-07-04T09:05:56;3.15;;;1.83;;
38132;SDS011;23948;43.252;26.572;2022-07-04T09:08:22;2.38;;;1.30;;
38132;SDS011;23948;43.252;26.572;2022-07-04T09:10:48;5.03;;;1.23;;
38132;SDS011;23948;43.252;26.572;2022-07-04T09:13:13;3.30;;;1.10;;
38132;SDS011;23948;43.252;26.572;2022-07-04T09:15:45;2.65;;;1.17;;
38132;SDS011;23948;43.252;26.572;2022-07-04T09:18:24;2.20;;;1.17;;
38132;SDS011;23948;43.252;26.572;2022-07-04T09:20:50;1.67;;;1.05;;
38132;SDS011;23948;43.252;26.572;2022-07-04T09:23:17;3.78;;;1.20;;
38132;SDS011;23948;43.252;26.572;2022-07-04T09:25:43;2.35;;;1.38;;
38132;SDS011;23948;43.252;26.572;2022-07-04T09:28:08;2.17;;;1.10;;
38132;SDS011;23948;43.252;26.572;2022-07-04T09:30:33;4.32;;;1.42;;
38132;SDS011;23948;43.252;26.572;2022-07-04T09:32:58;2.05;;;1.20;;
38132;SDS011;23948;43.252;26.572;2022-07-04T09:35:30;1.83;;;1.10;;
38132;SDS011;23948;43.252;26.572;2022-07-04T09:38:00;2.88;;;1.02;;
38132;SDS011;23948;43.252;26.572;2022-07-04T09:40:35;3.17;;;1.23;;
38132;SDS011;23948;43.252;26.572;2022-07-04T09:43:29;4.75;;;1.52;;
38132;SDS011;23948;43.252;26.572;2022-07-04T09:45:59;2.13;;;1.20;;
38132;SDS011;23948;43.252;26.572;2022-07-04T09:48:26;4.05;;;1.38;;
38132;SDS011;23948;43.252;26.572;2022-07-04T09:50:51;1.83;;;1.10;;
38132;SDS011;23948;43.252;26.572;2022-07-04T09:53:17;1.98;;;1.05;;
38132;SDS011;23948;43.252;26.572;2022-07-04T09:55:42;3.15;;;0.98;;
38132;SDS011;23948;43.252;26.572;2022-07-04T09:58:10;2.85;;;1.25;;
38132;SDS011;23948;43.252;26.572;2022-07-04T10:00:39;2.55;;;1.00;;
38132;SDS011;23948;43.252;26.572;2022-07-04T10:05:42;3.95;;;1.40;;
38132;SDS011;23948;43.252;26.572;2022-07-04T10:08:09;4.05;;;1.50;;
38132;SDS011;23948;43.252;26.572;2022-07-04T10:10:39;2.65;;;1.08;;
38132;SDS011;23948;43.252;26.572;2022-07-04T10:13:10;1.48;;;1.02;;
38132;SDS011;23948;43.252;26.572;2022-07-04T10:15:37;3.42;;;1.10;;
38132;SDS011;23948;43.252;26.572;2022-07-04T10:18:03;3.60;;;0.93;;
38132;SDS011;23948;43.252;26.572;2022-07-04T10:20:28;3.35;;;1.10;;
38132;SDS011;23948;43.252;26.572;2022-07-04T10:22:54;3.35;;;1.40;;
38132;SDS011;23948;43.252;26.572;2022-07-04T10:25:19;2.75;;;1.30;;
38132;SDS011;23948;43.252;26.572;2022-07-04T10:27:49;2.92;;;1.10;;
38132;SDS011;23948;43.252;26.572;2022-07-04T10:30:17;3.30;;;1.30;;
38132;SDS011;23948;43.252;26.572;2022-07-04T10:32:45;1.52;;;1.10;;
38132;SDS011;23948;43.252;26.572;2022-07-04T10:35:12;5.30;;;1.40;;
38132;SDS011;23948;43.252;26.572;2022-07-04T10:37:57;2.75;;;1.30;;
38132;SDS011;23948;43.252;26.572;2022-07-04T10:40:39;2.08;;;1.30;;
38132;SDS011;23948;43.252;26.572;2022-07-04T10:45:48;2.38;;;1.50;;
38132;SDS011;23948;43.252;26.572;2022-07-04T10:48:19;5.68;;;1.40;;
38132;SDS011;23948;43.252;26.572;2022-07-04T10:50:55;2.58;;;1.60;;
38132;SDS011;23948;43.252;26.572;2022-07-04T10:53:21;4.30;;;1.42;;
38132;SDS011;23948;43.252;26.572;2022-07-04T10:55:46;4.90;;;1.60;;
38132;SDS011;23948;43.252;26.572;2022-07-04T10:58:12;2.05;;;1.40;;
38132;SDS011;23948;43.252;26.572;2022-07-04T11:01:14;3.90;;;1.30;;
38132;SDS011;23948;43.252;26.572;2022-07-04T11:03:49;4.35;;;1.30;;
38132;SDS011;23948;43.252;26.572;2022-07-04T11:06:56;2.85;;;1.50;;
38132;SDS011;23948;43.252;26.572;2022-07-04T11:09:18;3.10;;;1.50;;
38132;SDS011;23948;43.252;26.572;2022-07-04T11:16:59;5.53;;;1.42;;
38132;SDS011;23948;43.252;26.572;2022-07-04T11:19:24;2.17;;;1.27;;
38132;SDS011;23948;43.252;26.572;2022-07-04T11:21:50;5.15;;;1.50;;
38132;SDS011;23948;43.252;26.572;2022-07-04T11:24:15;2.67;;;1.38;;
38132;SDS011;23948;43.252;26.572;2022-07-04T11:26:44;3.53;;;1.40;;
38132;SDS011;23948;43.252;26.572;2022-07-04T11:29:12;4.82;;;1.42;;
38132;SDS011;23948;43.252;26.572;2022-07-04T11:31:38;1.88;;;1.30;;
38132;SDS011;23948;43.252;26.572;2022-07-04T11:34:04;2.95;;;1.33;;
38132;SDS011;23948;43.252;26.572;2022-07-04T11:36:29;2.08;;;1.33;;
38132;SDS011;23948;43.252;26.572;2022-07-04T11:39:02;2.25;;;1.33;;
38132;SDS011;23948;43.252;26.572;2022-07-04T11:41:28;3.28;;;1.80;;
38132;SDS011;23948;43.252;26.572;2022-07-04T11:44:13;3.80;;;1.50;;
38132;SDS011;23948;43.252;26.572;2022-07-04T11:47:41;3.13;;;1.60;;
38132;SDS011;23948;43.252;26.572;2022-07-04T11:49:48;4.70;;;1.40;;
38132;SDS011;23948;43.252;26.572;2022-07-04T11:52:13;2.58;;;1.58;;
38132;SDS011;23948;43.252;26.572;2022-07-04T11:54:40;3.78;;;1.50;;
38132;SDS011;23948;43.252;26.572;2022-07-04T11:57:16;2.90;;;1.50;;
38132;SDS011;23948;43.252;26.572;2022-07-04T11:59:42;4.72;;;1.77;;
38132;SDS011;23948;43.252;26.572;2022-07-04T12:02:14;4.35;;;1.70;;
38132;SDS011;23948;43.252;26.572;2022-07-04T12:04:40;6.43;;;1.55;;
38132;SDS011;23948;43.252;26.572;2022-07-04T12:07:13;3.63;;;1.73;;
38132;SDS011;23948;43.252;26.572;2022-07-04T12:09:39;5.40;;;1.48;;
38132;SDS011;23948;43.252;26.572;2022-07-04T12:12:05;3.83;;;1.88;;
38132;SDS011;23948;43.252;26.572;2022-07-04T12:14:30;4.72;;;1.50;;
38132;SDS011;23948;43.252;26.572;2022-07-04T12:19:54;3.50;;;1.30;;
38132;SDS011;23948;43.252;26.572;2022-07-04T12:22:34;4.03;;;1.60;;
38132;SDS011;23948;43.252;26.572;2022-07-04T12:25:00;4.57;;;1.60;;
38132;SDS011;23948;43.252;26.572;2022-07-04T12:27:26;4.00;;;1.50;;
38132;SDS011;23948;43.252;26.572;2022-07-04T12:29:52;4.35;;;1.75;;
38132;SDS011;23948;43.252;26.572;2022-07-04T12:32:18;3.67;;;1.70;;
38132;SDS011;23948;43.252;26.572;2022-07-04T12:34:46;4.65;;;1.95;;
38132;SDS011;23948;43.252;26.572;2022-07-04T12:37:14;5.15;;;1.70;;
38132;SDS011;23948;43.252;26.572;2022-07-04T12:39:41;4.72;;;1.70;;
38132;SDS011;23948;43.252;26.572;2022-07-04T12:44:37;2.42;;;1.48;;
38132;SDS011;23948;43.252;26.572;2022-07-04T12:47:03;4.88;;;2.00;;
38132;SDS011;23948;43.252;26.572;2022-07-04T12:49:29;5.20;;;1.90;;
38132;SDS011;23948;43.252;26.572;2022-07-04T12:52:07;3.70;;;1.52;;
38132;SDS011;23948;43.252;26.572;2022-07-04T12:54:33;3.45;;;2.10;;
38132;SDS011;23948;43.252;26.572;2022-07-04T12:57:09;6.78;;;1.70;;
38132;SDS011;23948;43.252;26.572;2022-07-04T12:59:44;5.03;;;1.67;;
38132;SDS011;23948;43.252;26.572;2022-07-04T13:02:09;7.53;;;2.00;;
38132;SDS011;23948;43.252;26.572;2022-07-04T13:04:35;3.33;;;2.00;;
38132;SDS011;23948;43.252;26.572;2022-07-04T13:07:13;4.63;;;1.75;;
38132;SDS011;23948;43.252;26.572;2022-07-04T13:09:40;4.70;;;1.57;;
38132;SDS011;23948;43.252;26.572;2022-07-04T13:12:05;5.55;;;1.90;;
38132;SDS011;23948;43.252;26.572;2022-07-04T13:14:49;5.78;;;1.77;;
38132;SDS011;23948;43.252;26.572;2022-07-04T13:17:14;3.28;;;1.75;;
38132;SDS011;23948;43.252;26.572;2022-07-04T13:19:40;3.43;;;1.73;;
38132;SDS011;23948;43.252;26.572;2022-07-04T13:22:05;2.97;;;1.88;;
38132;SDS011;23948;43.252;26.572;2022-07-04T13:24:30;3.97;;;1.73;;
38132;SDS011;23948;43.252;26.572;2022-07-04T13:26:56;5.00;;;1.90;;
38132;SDS011;23948;43.252;26.572;2022-07-04T13:29:21;4.53;;;1.95;;
38132;SDS011;23948;43.252;26.572;2022-07-04T13:31:47;2.83;;;1.55;;
38132;SDS011;23948;43.252;26.572;2022-07-04T13:34:13;5.03;;;1.80;;
38132;SDS011;23948;43.252;26.572;2022-07-04T13:36:38;6.00;;;1.75;;
38132;SDS011;23948;43.252;26.572;2022-07-04T13:39:03;4.78;;;1.98;;
38132;SDS011;23948;43.252;26.572;2022-07-04T13:41:29;4.90;;;2.05;;
38132;SDS011;23948;43.252;26.572;2022-07-04T13:43:56;7.13;;;2.05;;
38132;SDS011;23948;43.252;26.572;2022-07-04T13:46:21;7.65;;;2.10;;
38132;SDS011;23948;43.252;26.572;2022-07-04T13:48:47;3.20;;;1.90;;
38132;SDS011;23948;43.252;26.572;2022-07-04T13:51:15;4.43;;;1.75;;
38132;SDS011;23948;43.252;26.572;2022-07-04T13:53:43;5.93;;;1.90;;
38132;SDS011;23948;43.252;26.572;2022-07-04T13:56:08;4.78;;;2.00;;
38132;SDS011;23948;43.252;26.572;2022-07-04T13:58:34;5.72;;;1.95;;
38132;SDS011;23948;43.252;26.572;2022-07-04T14:01:03;7.13;;;1.90;;
38132;SDS011;23948;43.252;26.572;2022-07-04T14:03:29;3.92;;;1.95;;
38132;SDS011;23948;43.252;26.572;2022-07-04T14:05:55;4.57;;;2.25;;
38132;SDS011;23948;43.252;26.572;2022-07-04T14:08:21;4.35;;;1.98;;
38132;SDS011;23948;43.252;26.572;2022-07-04T14:10:47;4.43;;;2.35;;
38132;SDS011;23948;43.252;26.572;2022-07-04T14:13:12;3.88;;;2.10;;
38132;SDS011;23948;43.252;26.572;2022-07-04T14:15:50;3.30;;;2.03;;
38132;SDS011;23948;43.252;26.572;2022-07-04T14:20:49;3.95;;;2.20;;
38132;SDS011;23948;43.252;26.572;2022-07-04T14:23:15;5.13;;;2.00;;
38132;SDS011;23948;43.252;26.572;2022-07-04T14:26:01;5.50;;;2.08;;
38132;SDS011;23948;43.252;26.572;2022-07-04T14:28:26;7.63;;;2.20;;
38132;SDS011;23948;43.252;26.572;2022-07-04T14:30:51;6.73;;;2.10;;
38132;SDS011;23948;43.252;26.572;2022-07-04T14:33:17;3.47;;;2.00;;
38132;SDS011;23948;43.252;26.572;2022-07-04T14:35:44;7.60;;;2.20;;
38132;SDS011;23948;43.252;26.572;2022-07-04T14:38:09;4.45;;;2.22;;
38132;SDS011;23948;43.252;26.572;2022-07-04T14:40:34;4.85;;;1.90;;
38132;SDS011;23948;43.252;26.572;2022-07-04T14:43:00;5.03;;;2.05;;
38132;SDS011;23948;43.252;26.572;2022-07-04T14:45:25;5.73;;;2.23;;
38132;SDS011;23948;43.252;26.572;2022-07-04T14:47:52;3.40;;;1.80;;